KPGD/PGD METAR and TAF weather

Enter ICAO airport designator
Station Type Date Time Source
KPGD METAR 2019/08/24 08:53 UTC NOAA

KPGD 240853Z AUTO 02005KT 10SM CLR 24/24 A2993 RMK AO2 SLP135 T02440244 56010


Station Type Date Time Source
KPGD Decoded METAR 2019/08/24 08:53 UTC NOAA

Station name not available
Aug 24, 2019 - 04:53 AM EDT / 2019.08.24 0853 UTC
Wind: from the NNE (020 degrees) at 6 MPH (5 KT):0
Visibility: 10 mile(s):0
Sky conditions: clear
Temperature: 75.9 F (24.4 C)
Dew Point: 75.9 F (24.4 C)
Relative Humidity: 100%
Pressure (altimeter): 29.93 in. Hg (1013 hPa)
Pressure tendency: 0.03 inches (1.0 hPa) lower than three hours ago
ob: KPGD 240853Z AUTO 02005KT 10SM CLR 24/24 A2993 RMK AO2 SLP135 T02440244 56010
cycle: 9

Station Type Date Time Source
KPGD TAF 2019/08/24 06:21 UTC NOAA

TAF KPGD 240520Z 2406/2506 VRB04KT P6SM FEW030 SCT250
FM241400 03006KT P6SM SCT025 SCT250
FM241600 02007KT P6SM VCTS BKN040CB
FM250100 VRB03KT P6SM FEW030 SCT250

Example: see airport list